Flight Track Log - Related Links

Times and Time Zones

All times are in EDT time to prevent confusion due to time zone crossing. See the UAL481 flight status page for this flight to view local times or setup timezone preferences in your user account.

Time Position Orientation Groundspeed Altitude Reporting Facility
EDT Latitude Longitude Course Direction KTS MPH feet Rate Location/Type
Fri 06:08:34 PM 42.7672 -73.8089 293° West 160 184 1,400  Level Boston Center
Fri 06:09:23 PM 42.7958 -73.8519 312° West 206 237 2,600 2,422 Climbing Boston Center
Fri 06:10:23 PM 42.8386 -73.9436 302° West 292 336 5,800 3,240 Climbing Boston Center
Fri 06:11:03 PM 42.8628 -73.9953 303° West 302 348 8,000 2,580 Climbing Boston Center
Fri 06:12:00 PM 42.7519 -74.3774 286° West  Level Estimated
Fri 06:12:03 PM 42.9075 -74.0786 306° West 308 354 10,100  Level Boston Center
Fri 06:13:00 PM 42.7930 -74.5100 293° West  Level FlightAware Approximate
Fri 06:13:01 PM 42.9722 -74.2108 304° West 362 417 11,300  Level Boston Center
Fri 06:14:02 PM 43.0181 -74.3369 296° West 406 467 13,700 2,579 Climbing Boston Center
Fri 06:15:02 PM 43.0339 -74.5108 277° West 412 474 16,500 2,600 Climbing Boston Center
Fri 06:16:02 PM 43.0517 -74.6706 279° West 421 484 18,900 1,736 Climbing Boston Center
Fri 06:17:03 PM 43.0592 -74.8186 274° West 429 494 20,000 1,339 Climbing Boston Center
Fri 06:18:03 PM 43.0742 -74.9925 277° West 447 514 21,600 1,627 Climbing Boston Center
Fri 06:19:01 PM 43.0869 -75.1667 276° West 459 528 23,200 1,220 Climbing Boston Center
Fri 06:20:01 PM 43.0908 -75.3458 272° West 470 541 24,000 1,041 Climbing Boston Center
Fri 06:21:02 PM 43.0964 -75.5283 272° West 477 549 25,300 1,410 Climbing Boston Center
Fri 06:22:47 PM 43.0833 -75.8500 267° West 480 552 27,900 1,500 Climbing Toronto Center
Fri 06:23:46 PM 43.0833 -76.0000 270° West 460 529 29,400 1,212 Climbing Toronto Center
Fri 06:24:26 PM 43.1017 -76.1361 280° West 460 529 29,900 941 Climbing Cleveland Center
Fri 06:25:28 PM 43.1031 -76.3114 271° West 461 531 31,000 1,065 Climbing Cleveland Center
Fri 06:26:30 PM 43.1042 -76.4875 271° West 462 532 32,100 1,161 Climbing Cleveland Center
Fri 06:27:32 PM 43.1047 -76.6611 270° West 460 529 33,400 1,258 Climbing Cleveland Center
Fri 06:28:34 PM 43.1056 -76.8689 270° West 460 529 34,700 1,161 Climbing Cleveland Center
Fri 06:29:36 PM 43.1061 -77.0406 270° West 457 526 35,800 624 Climbing Cleveland Center
Fri 06:30:39 PM 43.1058 -77.2103 270° West 452 520 36,000 96 Climbing Cleveland Center
Fri 06:31:41 PM 43.1058 -77.3822 270° West 455 524 36,000  Level Cleveland Center
Fri 06:32:43 PM 43.1053 -77.5533 270° West 456 525 36,000  Level Cleveland Center
Fri 06:33:45 PM 43.1042 -77.7586 270° West 455 524 36,000  Level Cleveland Center
Fri 06:34:47 PM 43.1031 -77.9300 270° West 455 524 36,000  Level Cleveland Center
Fri 06:35:49 PM 43.1022 -78.1017 270° West 456 525 36,000  Level Cleveland Center
Fri 06:36:51 PM 43.1011 -78.2753 270° West 458 527 36,000  Level Cleveland Center
Fri 06:37:53 PM 43.0989 -78.4831 269° West 458 527 36,000  Level Cleveland Center
Fri 06:38:55 PM 43.0958 -78.6581 269° West 464 534 36,000  Level Cleveland Center
Fri 06:39:57 PM 43.0944 -78.8306 269° West 456 525 36,000  Level Cleveland Center
Fri 06:40:59 PM 43.0906 -79.0050 268° West 459 528 36,000  Level Cleveland Center
Fri 06:42:01 PM 43.0886 -79.1764 269° West 453 521 36,000  Level Cleveland Center
Fri 06:43:03 PM 43.0850 -79.3483 268° West 455 524 36,000  Level Cleveland Center
Fri 06:44:06 PM 43.0811 -79.5558 269° West 456 525 36,000  Level Cleveland Center
Fri 06:44:47 PM 43.0667 -79.6500 258° West 460 529 36,000  Level Toronto Center
Fri 06:45:47 PM 43.0667 -79.8333 270° West 460 529 36,000  Level Toronto Center
Fri 06:46:47 PM 43.0667 -80.0000 270° West 460 529 36,000  Level Toronto Center
Fri 06:47:47 PM 43.0500 -80.1833 263° West 460 529 36,000  Level Toronto Center
Fri 06:48:47 PM 43.0500 -80.3667 270° West 460 529 36,000  Level Toronto Center
Fri 06:49:47 PM 43.0500 -80.5167 270° West 460 529 36,000  Level Toronto Center
Fri 06:50:47 PM 43.0500 -80.7000 270° West 460 529 36,000  Level Toronto Center
Fri 06:51:47 PM 43.0333 -80.8667 262° West 460 529 36,000  Level Toronto Center
Fri 06:52:47 PM 43.0167 -81.0500 263° West 460 529 36,000  Level Toronto Center
Fri 06:53:47 PM 43.0167 -81.2333 270° West 460 529 36,000  Level Toronto Center
Fri 06:54:47 PM 43.0167 -81.3833 270° West 450 518 36,000  Level Toronto Center
Fri 06:55:47 PM 43.0167 -81.5667 270° West 450 518 36,000  Level Toronto Center
Fri 06:56:47 PM 43.0167 -81.7333 270° West 450 518 36,000  Level Toronto Center
Fri 06:57:47 PM 43.0000 -81.9167 263° West 450 518 36,000  Level Toronto Center
Fri 06:58:47 PM 43.0000 -82.0667 270° West 450 518 36,000  Level Toronto Center
Fri 06:59:47 PM 43.0000 -82.2500 270° West 450 518 36,000  Level Toronto Center
Fri 07:00:47 PM 43.0000 -82.4167 270° West 450 518 36,000  Level Toronto Center
Fri 07:01:47 PM 43.0000 -82.6000 270° West 450 518 36,000  Level Toronto Center
Fri 07:02:43 PM 42.9983 -82.7322 269° West 452 520 36,000 -51 Level Cleveland Center
Fri 07:03:45 PM 42.9856 -82.9331 265° West 447 514 35,900 -339 Descending Cleveland Center
Fri 07:04:47 PM 42.9756 -83.1031 265° West 451 519 35,300 -629 Descending Cleveland Center
Fri 07:05:49 PM 42.9675 -83.2728 266° West 454 522 34,600 -677 Descending Cleveland Center
Fri 07:06:51 PM 42.9558 -83.4394 265° West 448 516 33,900 -677 Descending Cleveland Center
Fri 07:07:53 PM 42.9469 -83.6064 266° West 446 513 33,200 -435 Descending Cleveland Center
Fri 07:08:55 PM 42.9342 -83.8122 265° West 455 524 33,000 -435 Descending Cleveland Center
Fri 07:09:57 PM 42.9236 -83.9825 265° West 455 524 32,300 -484 Descending Cleveland Center
Fri 07:10:59 PM 42.9131 -84.1525 265° West 453 521 32,000 -145 Descending Cleveland Center
Fri 07:12:01 PM 42.9011 -84.3383 265° West 459 528 32,000  Level Cleveland Center
Fri 07:12:45 PM 42.8936 -84.4436 264° West 461 531 32,000  Level Chicago Center
Fri 07:13:47 PM 42.8772 -84.6519 264° West 461 531 32,000  Level Chicago Center
Fri 07:14:49 PM 42.8594 -84.8250 262° West 462 532 32,000 -216 Level Chicago Center
Fri 07:20:15 PM 42.7450 -85.7070 262° West 100 115 30,600 -230 Descending FlightAware ADS-B
Fri 07:20:55 PM 42.7420 -85.7280 259° West 100 115 30,600  Level FlightAware ADS-B
Fri 07:21:32 PM 42.7400 -85.7480 262° West 100 115 30,600  Level FlightAware ADS-B
Fri 07:22:08 PM 42.7370 -85.7670 258° West 100 115 30,600 -8,077 Level FlightAware ADS-B
Fri 07:22:50 PM 42.6570 -86.1350 254° West 444 511 20,100 -7,950 Descending FlightAware ADS-B
Fri 07:23:28 PM 42.6420 -86.2250 257° West 444 511 20,000 -81 Descending FlightAware ADS-B
Fri 07:24:04 PM 42.6280 -86.3090 257° West 444 511 20,000  Level FlightAware ADS-B
Fri 07:24:40 PM 42.6140 -86.3920 257° West 444 511 20,000  Level FlightAware ADS-B
Fri 07:25:16 PM 42.6000 -86.4750 257° West 444 511 20,000  Level FlightAware ADS-B
Fri 07:25:52 PM 42.5850 -86.5580 256° West 444 511 20,000  Level FlightAware ADS-B
Fri 07:26:29 PM 42.5710 -86.6440 258° West 444 511 20,000 -6,667 Level FlightAware ADS-B
Fri 07:26:55 PM 42.5290 -86.7630 244° Southwest 444 511 13,000 -5,778 Descending FlightAware ADS-B
Fri 07:27:50 PM 42.5070 -86.8710 255° West 392 451 12,200 -1,385 Descending FlightAware ADS-B
Fri 07:28:26 PM 42.4850 -86.9680 253° West 396 456 10,900 -1,083 Descending FlightAware ADS-B
Fri 07:29:02 PM 42.4700 -87.0410 254° West 396 456 10,900  Level FlightAware ADS-B
Fri 07:29:38 PM 42.4540 -87.1140 253° West 396 456 10,900 -1,403 Level FlightAware ADS-B
Fri 07:30:19 PM 42.4211 -87.2300 253° West 298 343 9,100 -1,864 Descending Chicago Center
Fri 07:31:21 PM 42.3950 -87.3286 250° West 280 322 7,700 -1,065 Descending Chicago Center
Fri 07:32:23 PM 42.3661 -87.4389 251° West 269 310 6,900 -339 Descending Chicago Center
Fri 07:33:25 PM 42.3297 -87.5269 241° Southwest 272 313 7,000  Climbing Chicago Center
Fri 07:34:27 PM 42.2719 -87.5911 219° Southwest 267 307 6,900 -629 Descending Chicago Center
Fri 07:35:29 PM 42.2175 -87.6550 221° Southwest 263 303 5,700 -976 Descending Chicago Center
Fri 07:36:30 PM 42.1667 -87.7108 219° Southwest 245 282 4,900 -927 Descending Chicago Center
Fri 07:37:32 PM 42.1214 -87.7614 220° Southwest 228 262 3,800 -1,250 Descending Chicago Center
Fri 07:38:30 PM 42.0667 -87.8167 217° Southwest 202 232 2,400 -1,119 Descending Chicago TRACON
Fri 07:39:30 PM 42.0333 -87.8500 217° Southwest 156 180 1,600 -750 Descending Chicago TRACON
Fri 07:40:30 PM 42.0000 -87.8833 217° Southwest 138 159 900 -700 Descending Chicago TRACON

Login

Don't have an account? Register now (free) for customized features, flight alerts, and more!